createdAt,value
2023-05-03T00:01:46.504Z,11.57
2023-05-03T00:04:14.878Z,11.27
2023-05-03T00:06:43.847Z,10.20
2023-05-03T00:09:10.770Z,12.23
2023-05-03T00:11:37.764Z,11.43
2023-05-03T00:14:04.528Z,11.20
2023-05-03T00:16:31.246Z,13.10
2023-05-03T00:18:58.079Z,11.70
2023-05-03T00:21:24.894Z,13.37
2023-05-03T00:23:51.637Z,9.93
2023-05-03T00:26:18.398Z,8.83
2023-05-03T00:28:45.548Z,11.77
2023-05-03T00:31:12.245Z,8.63
2023-05-03T00:33:39.880Z,10.17
2023-05-03T00:36:10.781Z,11.77
2023-05-03T00:38:38.065Z,10.13
2023-05-03T00:41:05.041Z,9.77
2023-05-03T00:43:34.374Z,10.73
2023-05-03T00:46:15.227Z,11.13
2023-05-03T00:48:43.966Z,12.00
2023-05-03T00:51:14.332Z,10.50
2023-05-03T00:53:42.616Z,10.53
2023-05-03T00:56:09.393Z,14.37
2023-05-03T00:58:40.508Z,11.27
2023-05-03T01:01:08.653Z,9.73
2023-05-03T01:03:41.703Z,10.50
2023-05-03T01:06:21.779Z,9.87
2023-05-03T01:09:00.358Z,12.93
2023-05-03T01:11:36.808Z,8.80
2023-05-03T01:14:20.731Z,9.17
2023-05-03T01:16:51.773Z,9.57
2023-05-03T01:19:40.271Z,8.73
2023-05-03T01:22:17.789Z,10.60
2023-05-03T01:24:55.661Z,9.77
2023-05-03T01:27:23.912Z,9.97
2023-05-03T01:29:51.406Z,11.23
2023-05-03T01:32:26.796Z,8.77
2023-05-03T01:35:15.898Z,9.00
2023-05-03T01:37:43.169Z,10.57
2023-05-03T01:40:11.749Z,11.47
2023-05-03T01:42:39.280Z,10.27
2023-05-03T01:45:07.257Z,9.50
2023-05-03T01:47:34.047Z,10.47
2023-05-03T01:50:01.058Z,9.37
2023-05-03T01:52:28.061Z,10.30
2023-05-03T01:54:54.770Z,11.80
2023-05-03T01:57:21.377Z,9.00
2023-05-03T01:59:48.159Z,8.73
2023-05-03T02:02:15.146Z,9.50
2023-05-03T02:04:41.951Z,9.17
2023-05-03T02:07:09.287Z,10.83
2023-05-03T02:09:36.206Z,10.37
2023-05-03T02:12:02.916Z,8.97
2023-05-03T02:14:29.650Z,10.67
2023-05-03T02:16:56.333Z,11.97
2023-05-03T02:19:23.056Z,10.70
2023-05-03T02:21:49.714Z,8.97
2023-05-03T02:24:16.613Z,9.20
2023-05-03T02:26:43.255Z,11.68
2023-05-03T02:29:10.365Z,8.63
2023-05-03T02:31:37.100Z,11.37
2023-05-03T02:34:04.417Z,11.00
2023-05-03T02:36:31.125Z,10.67
2023-05-03T02:39:00.724Z,9.50
2023-05-03T02:41:28.612Z,9.77
2023-05-03T02:43:55.260Z,9.47
2023-05-03T02:46:23.429Z,9.77
2023-05-03T02:48:50.193Z,10.03
2023-05-03T02:51:16.845Z,8.70
2023-05-03T02:53:43.558Z,10.00
2023-05-03T02:56:10.325Z,10.30
2023-05-03T02:58:37.050Z,9.70
2023-05-03T03:01:04.821Z,10.65
2023-05-03T03:03:31.655Z,10.60
2023-05-03T03:05:58.446Z,10.03
2023-05-03T03:08:25.314Z,9.83
2023-05-03T03:10:52.634Z,10.10
2023-05-03T03:13:19.436Z,10.30
2023-05-03T03:15:46.365Z,8.33
2023-05-03T03:18:13.201Z,9.87
2023-05-03T03:20:39.891Z,13.37
2023-05-03T03:23:07.169Z,9.30
2023-05-03T03:25:33.982Z,10.87
2023-05-03T03:28:00.769Z,14.63
2023-05-03T03:30:28.235Z,10.93
2023-05-03T03:33:11.521Z,10.90
2023-05-03T03:35:41.249Z,10.77
2023-05-03T03:38:08.699Z,8.87
2023-05-03T03:40:39.906Z,10.97
2023-05-03T03:43:06.634Z,8.27
2023-05-03T03:45:33.398Z,10.73
2023-05-03T03:48:00.715Z,9.07
2023-05-03T03:50:27.679Z,10.53
2023-05-03T03:52:54.301Z,12.03
2023-05-03T03:55:21.073Z,8.53
2023-05-03T03:57:49.656Z,13.33
2023-05-03T04:00:16.755Z,9.80
2023-05-03T04:02:49.665Z,8.33
2023-05-03T04:05:18.373Z,13.80
2023-05-03T04:07:46.095Z,10.83
2023-05-03T04:10:14.586Z,10.93
2023-05-03T04:12:41.524Z,12.57
2023-05-03T04:15:08.966Z,11.97
2023-05-03T04:17:37.458Z,6.93
2023-05-03T04:20:10.824Z,8.73
2023-05-03T04:22:40.389Z,9.70
2023-05-03T04:25:17.103Z,11.33
2023-05-03T04:27:48.752Z,11.13
2023-05-03T04:30:17.482Z,11.07
2023-05-03T04:32:48.121Z,10.40
2023-05-03T04:35:15.679Z,10.73
2023-05-03T04:37:46.762Z,11.23
2023-05-03T04:40:19.622Z,11.73
2023-05-03T04:42:52.027Z,12.37
2023-05-03T04:45:20.763Z,9.83
2023-05-03T04:47:48.220Z,9.43
2023-05-03T04:50:15.138Z,10.57
2023-05-03T04:52:44.645Z,13.73
2023-05-03T04:55:12.496Z,12.03
2023-05-03T04:57:39.130Z,8.47
2023-05-03T05:00:11.826Z,8.83
2023-05-03T05:02:43.715Z,10.23
2023-05-03T05:05:11.341Z,12.33
2023-05-03T05:07:38.100Z,11.20
2023-05-03T05:10:05.635Z,11.63
2023-05-03T05:12:32.633Z,9.63
2023-05-03T05:15:02.467Z,10.37
2023-05-03T05:17:29.307Z,11.37
2023-05-03T05:19:56.326Z,10.40
2023-05-03T05:22:22.933Z,10.70
2023-05-03T05:24:54.975Z,9.70
2023-05-03T05:27:23.790Z,9.70
2023-05-03T05:29:52.533Z,8.73
2023-05-03T05:32:20.042Z,9.07
2023-05-03T05:34:52.870Z,6.70
2023-05-03T05:37:25.042Z,7.70
2023-05-03T05:39:53.774Z,7.23
2023-05-03T05:42:22.598Z,7.70
2023-05-03T05:44:50.035Z,9.00
2023-05-03T05:47:16.951Z,8.87
2023-05-03T05:49:45.208Z,9.47
2023-05-03T05:52:12.420Z,8.00
2023-05-03T05:54:39.808Z,8.47
2023-05-03T05:57:06.860Z,9.57
2023-05-03T05:59:34.409Z,6.03
2023-05-03T06:02:01.195Z,8.33
2023-05-03T06:04:28.887Z,8.37
2023-05-03T06:06:56.767Z,7.63
2023-05-03T06:09:24.984Z,8.50
2023-05-03T06:11:55.377Z,8.10
2023-05-03T06:14:22.038Z,8.33
2023-05-03T06:16:50.744Z,9.17
2023-05-03T06:19:17.567Z,8.37
2023-05-03T06:21:44.225Z,8.73
2023-05-03T06:24:10.933Z,8.53
2023-05-03T06:26:38.583Z,9.50
2023-05-03T06:29:05.849Z,7.97
2023-05-03T06:31:32.531Z,7.80
2023-05-03T06:33:59.582Z,8.93
2023-05-03T06:36:27.652Z,7.77
2023-05-03T06:38:55.825Z,8.87
2023-05-03T06:41:22.444Z,9.40
2023-05-03T06:43:49.118Z,10.10
2023-05-03T06:46:18.262Z,8.07
2023-05-03T06:48:46.447Z,8.80
2023-05-03T06:51:13.157Z,7.40
2023-05-03T06:53:39.752Z,7.10
2023-05-03T06:56:06.769Z,8.37
2023-05-03T06:58:33.395Z,9.27
2023-05-03T07:01:00.065Z,9.17
2023-05-03T07:03:26.836Z,8.93
2023-05-03T07:05:53.629Z,9.17
2023-05-03T07:08:20.292Z,8.97
2023-05-03T07:10:46.899Z,7.53
2023-05-03T07:13:14.269Z,9.70
2023-05-03T07:15:41.108Z,9.53
2023-05-03T07:18:08.311Z,6.03
2023-05-03T07:20:34.988Z,8.80
2023-05-03T07:23:01.785Z,6.83
2023-05-03T07:25:28.539Z,6.87
2023-05-03T07:27:55.277Z,8.73
2023-05-03T07:30:22.305Z,7.50
2023-05-03T07:32:50.637Z,7.77
2023-05-03T07:35:17.314Z,8.80
2023-05-03T07:37:44.765Z,6.53
2023-05-03T07:40:12.291Z,6.43
2023-05-03T07:42:38.998Z,8.37
2023-05-03T07:45:06.435Z,7.43
2023-05-03T07:47:35.317Z,9.93
2023-05-03T07:50:02.288Z,7.20
2023-05-03T07:52:39.401Z,8.20
2023-05-03T07:55:07.221Z,8.20
2023-05-03T07:57:33.874Z,5.33
2023-05-03T08:00:00.905Z,8.07
2023-05-03T08:02:28.253Z,9.40
2023-05-03T08:04:55.272Z,7.07
2023-05-03T08:07:22.122Z,7.40
2023-05-03T08:09:49.400Z,9.33
2023-05-03T08:12:16.043Z,9.43
2023-05-03T08:14:42.868Z,7.63
2023-05-03T08:17:09.666Z,8.73
2023-05-03T08:19:36.582Z,7.63
2023-05-03T08:22:03.405Z,7.47
2023-05-03T08:24:30.305Z,7.33
2023-05-03T08:26:56.968Z,8.53
2023-05-03T08:29:24.083Z,6.07
2023-05-03T08:31:51.856Z,5.23
2023-05-03T08:34:18.683Z,7.93
2023-05-03T08:36:45.509Z,5.77
2023-05-03T08:39:12.145Z,5.40
2023-05-03T08:41:39.634Z,7.60
2023-05-03T08:44:08.380Z,6.27
2023-05-03T08:46:37.223Z,5.67
2023-05-03T08:49:06.673Z,6.83
2023-05-03T08:51:34.269Z,5.07
2023-05-03T08:54:01.086Z,7.65
2023-05-03T08:56:34.601Z,7.45
2023-05-03T08:59:07.452Z,6.53
2023-05-03T09:01:37.192Z,7.70
2023-05-03T09:04:04.641Z,5.90
2023-05-03T09:06:33.171Z,8.48
2023-05-03T09:09:00.851Z,7.53
2023-05-03T09:11:30.273Z,4.95
2023-05-03T09:14:12.222Z,6.90
2023-05-03T09:16:40.727Z,6.00
2023-05-03T09:19:11.518Z,5.10
2023-05-03T09:21:39.369Z,5.32
2023-05-03T09:24:21.080Z,8.75
2023-05-03T09:26:51.918Z,5.18
2023-05-03T09:29:34.510Z,5.78
2023-05-03T09:32:05.447Z,8.30
2023-05-03T09:34:33.382Z,5.80
2023-05-03T09:37:00.051Z,5.43
2023-05-03T09:39:27.514Z,4.97
2023-05-03T09:41:54.400Z,5.88
2023-05-03T09:44:41.270Z,4.60
2023-05-03T09:47:08.388Z,6.57
2023-05-03T09:49:39.376Z,4.93
2023-05-03T09:52:07.779Z,5.18
2023-05-03T09:54:38.125Z,4.68
2023-05-03T09:57:06.519Z,6.60
2023-05-03T09:59:38.779Z,5.28
2023-05-03T10:02:07.495Z,5.32
2023-05-03T10:04:47.526Z,5.50
2023-05-03T10:07:18.624Z,4.00
2023-05-03T10:09:47.847Z,5.18
2023-05-03T10:12:17.460Z,4.40
2023-05-03T10:14:48.680Z,4.85
2023-05-03T10:17:46.096Z,5.57
2023-05-03T10:20:27.173Z,4.55
2023-05-03T10:23:11.950Z,5.43
2023-05-03T10:25:41.051Z,5.95
2023-05-03T10:28:09.490Z,5.13
2023-05-03T10:30:36.258Z,5.15
2023-05-03T10:33:17.783Z,5.22
2023-05-03T10:35:54.404Z,6.78
2023-05-03T10:38:23.004Z,5.38
2023-05-03T10:40:50.585Z,7.50
2023-05-03T10:43:29.554Z,4.30
2023-05-03T10:45:57.376Z,7.55
2023-05-03T10:48:24.396Z,4.63
2023-05-03T10:50:52.625Z,6.10
2023-05-03T10:53:31.920Z,5.85
2023-05-03T10:56:10.140Z,5.35
2023-05-03T10:58:38.093Z,5.75
2023-05-03T11:01:06.824Z,5.50
2023-05-03T11:03:55.979Z,5.63
2023-05-03T11:06:37.134Z,4.90
2023-05-03T11:09:06.624Z,5.10
2023-05-03T11:11:35.181Z,5.53
2023-05-03T11:14:01.966Z,5.82
2023-05-03T11:16:32.297Z,5.35
2023-05-03T11:19:00.323Z,5.20
2023-05-03T11:21:27.649Z,5.35
2023-05-03T11:23:54.408Z,4.80
2023-05-03T11:26:25.911Z,6.07
2023-05-03T11:28:54.044Z,5.57
2023-05-03T11:31:21.621Z,4.55
2023-05-03T11:33:49.464Z,4.70
2023-05-03T11:36:16.222Z,4.68
2023-05-03T11:38:42.941Z,4.32
2023-05-03T11:41:19.027Z,5.13
2023-05-03T11:43:47.810Z,2.78
2023-05-03T11:46:26.492Z,3.22
2023-05-03T11:48:53.452Z,6.45
2023-05-03T11:51:23.870Z,4.75
2023-05-03T11:53:51.391Z,5.43
2023-05-03T11:56:20.296Z,5.20
2023-05-03T11:58:58.354Z,5.38
2023-05-03T12:01:27.143Z,4.53
2023-05-03T12:03:58.772Z,4.45
2023-05-03T12:06:32.195Z,4.10
2023-05-03T12:09:03.493Z,3.75
2023-05-03T12:11:32.911Z,4.45
2023-05-03T12:14:03.133Z,6.18
2023-05-03T12:16:50.989Z,6.15
2023-05-03T12:19:26.071Z,5.30
2023-05-03T12:22:04.490Z,4.35
2023-05-03T12:24:39.879Z,4.93
2023-05-03T12:27:08.624Z,5.75
2023-05-03T12:29:35.848Z,7.57
2023-05-03T12:32:03.721Z,3.03
2023-05-03T12:34:35.682Z,5.82
2023-05-03T12:37:05.614Z,4.27
2023-05-03T12:39:34.095Z,6.10
2023-05-03T12:44:35.039Z,3.93
2023-05-03T12:47:02.912Z,4.70
2023-05-03T12:49:30.290Z,3.37
2023-05-03T12:52:24.102Z,3.23
2023-05-03T12:55:02.709Z,3.47
2023-05-03T12:57:31.258Z,4.83
2023-05-03T13:00:03.344Z,3.70
2023-05-03T13:05:09.722Z,4.20
2023-05-03T13:07:42.921Z,4.90
2023-05-03T13:12:40.714Z,4.10
2023-05-03T13:15:08.284Z,4.50
2023-05-03T13:17:35.216Z,6.33
2023-05-03T13:20:01.942Z,5.07
2023-05-03T13:22:30.098Z,4.70
2023-05-03T13:24:56.778Z,3.40
2023-05-03T13:27:23.487Z,3.93
2023-05-03T13:29:50.217Z,3.80
2023-05-03T13:32:17.227Z,4.77
2023-05-03T13:34:44.293Z,8.20
2023-05-03T13:37:11.790Z,4.23
2023-05-03T13:39:38.650Z,5.37
2023-05-03T13:42:06.276Z,3.87
2023-05-03T13:44:32.977Z,4.27
2023-05-03T13:46:59.609Z,5.57
2023-05-03T13:49:26.346Z,4.97
2023-05-03T13:51:53.015Z,4.27
2023-05-03T13:54:20.193Z,4.30
2023-05-03T13:56:47.286Z,5.50
2023-05-03T13:59:14.112Z,5.30
2023-05-03T14:01:42.998Z,4.30
2023-05-03T14:04:10.223Z,5.53
2023-05-03T14:06:39.412Z,4.47
2023-05-03T14:09:07.842Z,2.93
2023-05-03T14:11:34.633Z,4.83
2023-05-03T14:14:01.699Z,3.33
2023-05-03T14:18:58.347Z,3.33
2023-05-03T14:21:25.178Z,3.37
2023-05-03T14:23:52.971Z,3.73
2023-05-03T14:26:20.484Z,3.97
2023-05-03T14:28:47.173Z,3.37
2023-05-03T14:31:13.875Z,3.70
2023-05-03T14:33:40.537Z,5.40
2023-05-03T14:36:08.719Z,3.77
2023-05-03T14:38:37.141Z,4.57
2023-05-03T14:41:04.086Z,3.57
2023-05-03T14:43:31.408Z,3.80
2023-05-03T14:45:58.000Z,5.80
2023-05-03T14:48:24.812Z,3.67
2023-05-03T14:50:51.612Z,2.83
2023-05-03T14:53:18.279Z,3.43
2023-05-03T14:55:46.039Z,4.43
2023-05-03T14:58:16.101Z,2.80
2023-05-03T15:00:43.370Z,7.07
2023-05-03T15:03:12.041Z,4.60
2023-05-03T15:05:45.355Z,4.40
2023-05-03T15:08:15.159Z,4.50
2023-05-03T15:10:44.256Z,4.03
2023-05-03T15:13:12.258Z,3.73
2023-05-03T15:15:40.509Z,3.80
2023-05-03T15:18:08.594Z,3.00
2023-05-03T15:20:35.984Z,5.37
2023-05-03T15:23:04.180Z,3.33
2023-05-03T15:25:31.485Z,4.27
2023-05-03T15:27:59.997Z,3.60
2023-05-03T15:30:28.846Z,5.77
2023-05-03T15:32:55.663Z,4.83
2023-05-03T15:35:22.472Z,5.23
2023-05-03T15:37:49.532Z,4.40
2023-05-03T15:40:16.675Z,5.13
2023-05-03T15:42:43.744Z,3.87
2023-05-03T15:45:10.803Z,4.20
2023-05-03T15:47:37.494Z,3.80
2023-05-03T15:50:06.377Z,3.57
2023-05-03T15:52:34.736Z,3.13
2023-05-03T15:55:01.461Z,3.97
2023-05-03T15:57:29.645Z,4.83
2023-05-03T15:59:57.063Z,3.27
2023-05-03T16:02:23.943Z,5.80
2023-05-03T16:04:50.930Z,3.43
2023-05-03T16:07:17.935Z,4.57
2023-05-03T16:09:44.755Z,7.13
2023-05-03T16:12:11.737Z,2.83
2023-05-03T16:14:38.422Z,4.20
2023-05-03T16:17:05.147Z,3.97
2023-05-03T16:19:32.117Z,4.27
2023-05-03T16:21:58.984Z,4.23
2023-05-03T16:24:25.866Z,2.90
2023-05-03T16:26:52.975Z,5.50
2023-05-03T16:29:19.990Z,3.83
2023-05-03T16:31:46.958Z,6.23
2023-05-03T16:34:14.217Z,4.47
2023-05-03T16:36:43.087Z,5.03
2023-05-03T16:39:11.669Z,4.40
2023-05-03T16:41:38.907Z,3.27
2023-05-03T16:44:07.129Z,4.93
2023-05-03T16:46:39.569Z,6.97
2023-05-03T16:49:06.388Z,3.37
2023-05-03T16:51:33.749Z,4.30
2023-05-03T16:54:03.789Z,3.33
2023-05-03T16:56:31.317Z,3.63
2023-05-03T16:58:59.200Z,3.90
2023-05-03T17:01:26.401Z,3.40
2023-05-03T17:03:53.501Z,4.63
2023-05-03T17:06:20.505Z,4.90
2023-05-03T17:08:47.269Z,5.13
2023-05-03T17:11:14.816Z,3.90
2023-05-03T17:13:42.037Z,3.97
2023-05-03T17:16:10.780Z,5.07
2023-05-03T17:18:38.796Z,4.20
2023-05-03T17:21:06.641Z,2.40
2023-05-03T17:23:35.923Z,3.83
2023-05-03T17:26:07.012Z,3.80
2023-05-03T17:28:33.967Z,3.50
2023-05-03T17:31:02.309Z,4.93
2023-05-03T17:33:29.221Z,2.43
2023-05-03T17:35:55.897Z,5.77
2023-05-03T17:38:23.478Z,3.30
2023-05-03T17:40:50.681Z,2.93
2023-05-03T17:43:17.798Z,3.27
2023-05-03T17:45:47.358Z,3.20
2023-05-03T17:48:14.520Z,3.40
2023-05-03T17:50:43.004Z,4.90
2023-05-03T17:53:09.790Z,2.80
2023-05-03T17:55:38.308Z,3.60
2023-05-03T17:58:06.177Z,4.30
2023-05-03T18:00:33.855Z,4.63
2023-05-03T18:03:01.286Z,4.73
2023-05-03T18:05:28.382Z,4.03
2023-05-03T18:07:55.093Z,3.00
2023-05-03T18:10:22.329Z,4.77
2023-05-03T18:12:49.280Z,7.17
2023-05-03T18:15:16.312Z,3.27
2023-05-03T18:17:43.532Z,5.90
2023-05-03T18:20:10.860Z,3.03
2023-05-03T18:22:37.853Z,3.83
2023-05-03T18:25:07.527Z,5.03
2023-05-03T18:27:37.277Z,4.07
2023-05-03T18:30:06.746Z,3.37
2023-05-03T18:32:34.805Z,3.17
2023-05-03T18:35:02.440Z,3.77
2023-05-03T18:37:29.711Z,3.83
2023-05-03T18:39:56.433Z,3.40
2023-05-03T18:42:23.170Z,5.13
2023-05-03T18:44:49.860Z,4.80
2023-05-03T18:47:20.640Z,4.07
2023-05-03T18:49:52.713Z,4.43
2023-05-03T18:52:20.455Z,3.40
2023-05-03T18:54:47.469Z,4.03
2023-05-03T18:57:14.199Z,5.30
2023-05-03T18:59:52.583Z,5.33
2023-05-03T19:02:25.330Z,4.23
2023-05-03T19:04:52.658Z,7.20
2023-05-03T19:07:19.510Z,4.33
2023-05-03T19:09:46.206Z,3.93
2023-05-03T19:12:13.506Z,5.17
2023-05-03T19:14:42.920Z,4.77
2023-05-03T19:17:09.836Z,4.37
2023-05-03T19:19:36.818Z,6.03
2023-05-03T19:22:03.714Z,4.10
2023-05-03T19:24:30.493Z,5.47
2023-05-03T19:26:57.298Z,5.03
2023-05-03T19:29:23.953Z,6.07
2023-05-03T19:31:50.694Z,5.33
2023-05-03T19:34:17.685Z,6.10
2023-05-03T19:36:44.276Z,4.77
2023-05-03T19:39:11.395Z,4.50
2023-05-03T19:41:38.732Z,4.23
2023-05-03T19:44:06.025Z,6.20
2023-05-03T19:46:33.778Z,4.23
2023-05-03T19:49:01.345Z,5.00
2023-05-03T19:51:28.184Z,3.37
2023-05-03T19:53:55.258Z,5.90
2023-05-03T19:56:22.170Z,6.13
2023-05-03T19:58:50.688Z,4.17
2023-05-03T20:01:17.672Z,6.70
2023-05-03T20:03:44.620Z,4.50
2023-05-03T20:06:11.436Z,4.43
2023-05-03T20:08:38.033Z,8.40
2023-05-03T20:11:04.747Z,4.73
2023-05-03T20:13:31.683Z,4.03
2023-05-03T20:15:58.391Z,6.30
2023-05-03T20:18:25.187Z,5.73
2023-05-03T20:20:51.784Z,5.80
2023-05-03T20:23:18.492Z,3.37
2023-05-03T20:25:45.147Z,4.30
2023-05-03T20:28:12.908Z,3.97
2023-05-03T20:30:39.568Z,3.30
2023-05-03T20:33:06.304Z,7.97
2023-05-03T20:35:32.984Z,6.00
2023-05-03T20:37:59.566Z,4.17
2023-05-03T20:40:26.248Z,6.37
2023-05-03T20:42:52.872Z,4.13
2023-05-03T20:45:19.585Z,7.33
2023-05-03T20:47:46.316Z,4.13
2023-05-03T20:50:13.029Z,4.53
2023-05-03T20:52:39.711Z,3.97
2023-05-03T20:55:07.199Z,4.70
2023-05-03T20:57:33.975Z,3.33
2023-05-03T21:00:02.257Z,4.20
2023-05-03T21:02:29.156Z,4.93
2023-05-03T21:04:55.855Z,5.93
2023-05-03T21:07:22.575Z,2.47
2023-05-03T21:09:49.303Z,5.40
2023-05-03T21:12:16.012Z,8.50
2023-05-03T21:14:42.669Z,4.57
2023-05-03T21:17:12.095Z,5.93
2023-05-03T21:19:39.611Z,6.27
2023-05-03T21:22:09.533Z,4.53
2023-05-03T21:24:36.351Z,4.63
2023-05-03T21:27:03.404Z,4.67
2023-05-03T21:29:30.006Z,3.93
2023-05-03T21:31:56.971Z,5.33
2023-05-03T21:34:23.666Z,4.87
2023-05-03T21:36:50.554Z,3.67
2023-05-03T21:39:17.272Z,4.00
2023-05-03T21:41:43.939Z,5.03
2023-05-03T21:44:10.631Z,4.87
2023-05-03T21:46:37.378Z,4.30
2023-05-03T21:49:04.016Z,4.70
2023-05-03T21:51:31.185Z,4.97
2023-05-03T21:53:57.855Z,3.73
2023-05-03T21:56:24.531Z,3.93
2023-05-03T21:58:51.247Z,7.83
2023-05-03T22:01:19.948Z,3.73
2023-05-03T22:03:48.611Z,5.67
2023-05-03T22:06:18.350Z,4.40
2023-05-03T22:08:45.049Z,6.43
2023-05-03T22:11:12.471Z,6.90
2023-05-03T22:13:49.622Z,7.10
2023-05-03T22:16:18.329Z,5.80
2023-05-03T22:18:45.065Z,4.93
2023-05-03T22:21:11.721Z,5.20
2023-05-03T22:23:38.479Z,6.63
2023-05-03T22:26:05.123Z,3.97
2023-05-03T22:28:31.792Z,6.07
2023-05-03T22:30:58.511Z,5.43
2023-05-03T22:33:25.331Z,5.03
2023-05-03T22:35:52.301Z,6.00
2023-05-03T22:38:20.040Z,5.60
2023-05-03T22:40:46.931Z,5.13
2023-05-03T22:43:13.601Z,3.73
2023-05-03T22:45:40.287Z,5.40
2023-05-03T22:48:07.065Z,6.77
2023-05-03T22:50:33.710Z,5.10
2023-05-03T22:53:00.400Z,4.03
2023-05-03T22:55:27.066Z,4.80
2023-05-03T22:57:53.816Z,4.80
2023-05-03T23:00:21.619Z,5.07
2023-05-03T23:05:15.718Z,5.57
2023-05-03T23:07:43.194Z,6.03
2023-05-03T23:10:10.176Z,4.37
2023-05-03T23:12:37.134Z,4.67
2023-05-03T23:15:04.242Z,3.80
2023-05-03T23:17:31.503Z,4.23
2023-05-03T23:19:58.273Z,4.63
2023-05-03T23:22:24.885Z,7.47
2023-05-03T23:24:51.521Z,5.43
2023-05-03T23:27:18.166Z,4.03
2023-05-03T23:29:47.183Z,7.07
2023-05-03T23:32:14.402Z,5.23
2023-05-03T23:34:41.869Z,3.33
2023-05-03T23:37:08.505Z,3.90
2023-05-03T23:39:35.263Z,3.93
2023-05-03T23:42:02.104Z,7.10
2023-05-03T23:44:38.679Z,4.77
2023-05-03T23:47:15.418Z,3.90
2023-05-03T23:49:42.023Z,6.83
2023-05-03T23:52:09.734Z,4.97
2023-05-03T23:54:36.495Z,5.17
2023-05-03T23:57:03.145Z,5.07
2023-05-03T23:59:29.852Z,5.03
